Time;durP1;ratioP1;P1;durP2;ratioP2;P2;SDS_P1;SDS_P2;PMS_P1;PMS_P2;Temp;Humidity;BMP_temperature;BMP_pressure;BME280_temperature;BME280_humidity;BME280_pressure;Samples;Min_cycle;Max_cycle;Signal;HPM_P1;HPM_P2
2022/10/12 00:00:13;;;;;;;6.30;2.40;;;7.70;99.90;;;;;;4918807;29;20036;-80
2022/10/12 00:02:40;;;;;;;5.20;1.80;;;7.70;99.90;;;;;;4934772;29;20482;-80
2022/10/12 00:05:06;;;;;;;4.97;2.05;;;7.80;99.90;;;;;;4932091;29;20047;-80
2022/10/12 00:07:33;;;;;;;3.92;1.85;;;7.80;99.90;;;;;;4918679;29;20086;-80
2022/10/12 00:10:09;;;;;;;7.95;2.10;;;7.70;99.90;;;;;;4937181;29;20050;-80
2022/10/12 00:12:45;;;;;;;4.38;1.50;;;7.70;99.90;;;;;;4943626;28;20042;-80
2022/10/12 00:15:21;;;;;;;4.03;1.50;;;7.70;99.90;;;;;;4938763;29;20074;-80
2022/10/12 00:17:48;;;;;;;3.80;1.70;;;7.70;99.90;;;;;;4932970;29;20126;-80
2022/10/12 00:20:27;;;;;;;4.45;1.85;;;7.50;99.90;;;;;;4931842;29;20378;-80
2022/10/12 00:22:58;;;;;;;4.35;1.88;;;7.60;99.90;;;;;;4928627;29;20035;-80
2022/10/12 00:25:35;;;;;;;5.05;1.60;;;7.60;99.90;;;;;;4899422;29;20047;-80
2022/10/12 00:28:06;;;;;;;5.50;1.58;;;7.60;99.90;;;;;;4920101;29;20043;-80
2022/10/12 00:30:34;;;;;;;3.70;1.60;;;7.50;99.90;;;;;;4902613;29;20044;-80
2022/10/12 00:33:04;;;;;;;5.97;1.58;;;7.50;99.90;;;;;;4947454;28;20043;-80
2022/10/12 00:35:38;;;;;;;4.40;1.65;;;7.60;99.90;;;;;;4947836;28;20192;-80
2022/10/12 00:38:05;;;;;;;2.90;1.55;;;7.50;99.90;;;;;;4917659;29;20051;-80
2022/10/12 00:40:33;;;;;;;3.47;1.67;;;7.50;99.90;;;;;;4928172;29;20036;-81
2022/10/12 00:43:00;;;;;;;4.13;2.20;;;7.40;99.90;;;;;;4934463;29;20044;-80
2022/10/12 00:45:31;;;;;;;7.03;1.95;;;7.50;99.90;;;;;;4934890;29;20035;-80
2022/10/12 00:47:59;;;;;;;4.85;2.22;;;7.40;99.90;;;;;;4932977;29;20047;-80
2022/10/12 00:50:34;;;;;;;4.07;1.88;;;7.30;99.90;;;;;;4942263;28;20193;-80
2022/10/12 00:53:18;;;;;;;4.38;2.20;;;7.30;99.90;;;;;;4914794;29;20046;-80
2022/10/12 00:55:48;;;;;;;9.23;2.13;;;7.40;99.90;;;;;;4949081;28;20150;-80
2022/10/12 00:58:30;;;;;;;9.23;3.05;;;7.40;99.90;;;;;;4922047;29;20050;-80
2022/10/12 01:01:48;;;;;;;7.35;2.60;;;7.40;99.90;;;;;;4936483;29;20078;-80
2022/10/12 01:04:22;;;;;;;4.38;2.00;;;7.40;99.90;;;;;;4919881;28;20047;-80
2022/10/12 01:06:52;;;;;;;6.63;2.50;;;7.40;99.90;;;;;;4933514;29;20494;-80
2022/10/12 01:09:20;;;;;;;8.55;3.30;;;7.40;99.90;;;;;;4902412;29;20106;-80
2022/10/12 01:12:06;;;;;;;4.72;2.50;;;7.40;99.90;;;;;;4915003;29;20039;-80
2022/10/12 01:14:41;;;;;;;3.50;2.10;;;7.50;99.90;;;;;;4931558;29;20050;-80
2022/10/12 01:17:28;;;;;;;2.67;1.75;;;7.40;99.90;;;;;;4943557;29;20056;-80
2022/10/12 01:20:32;;;;;;;5.05;2.40;;;7.30;99.90;;;;;;4921991;29;20039;-80
2022/10/12 01:23:17;;;;;;;8.25;2.75;;;7.30;99.90;;;;;;4948686;29;20137;-80
2022/10/12 01:25:58;;;;;;;6.25;2.90;;;7.30;99.90;;;;;;4917355;29;20036;-80
2022/10/12 01:28:52;;;;;;;7.53;2.63;;;7.30;99.90;;;;;;4916279;29;20039;-80
2022/10/12 01:31:39;;;;;;;3.95;2.20;;;7.30;99.90;;;;;;4944576;28;20107;-80
2022/10/12 01:34:41;;;;;;;3.78;2.72;;;7.30;99.90;;;;;;4928032;28;20047;-80
2022/10/12 01:37:42;;;;;;;10.60;3.05;;;7.20;99.90;;;;;;4920319;29;20071;-80
2022/10/12 01:40:28;;;;;;;8.63;3.63;;;7.20;99.90;;;;;;4925530;29;20035;-80
2022/10/12 01:42:56;;;;;;;9.57;4.00;;;7.20;99.90;;;;;;4920234;29;20075;-80
2022/10/12 01:45:34;;;;;;;6.68;2.53;;;7.30;99.90;;;;;;4923737;29;20039;-80
2022/10/12 01:48:30;;;;;;;5.07;2.97;;;7.30;99.90;;;;;;4951879;28;20039;-80
2022/10/12 01:51:01;;;;;;;6.03;2.80;;;7.30;99.90;;;;;;4939401;29;20071;-80
2022/10/12 01:53:35;;;;;;;6.47;3.78;;;7.30;99.90;;;;;;4924417;29;20043;-80
2022/10/12 01:56:31;;;;;;;4.35;2.70;;;7.30;99.90;;;;;;4925317;29;20504;-80
2022/10/12 01:59:34;;;;;;;11.45;3.13;;;7.20;99.90;;;;;;4915598;29;20078;-80
2022/10/12 02:02:20;;;;;;;6.38;3.75;;;7.20;99.90;;;;;;4931506;29;20074;-80
2022/10/12 02:04:59;;;;;;;4.90;2.30;;;7.20;99.90;;;;;;4918036;29;20099;-80
2022/10/12 02:08:04;;;;;;;3.83;2.83;;;7.20;99.90;;;;;;4951711;28;20062;-80
2022/10/12 02:10:39;;;;;;;6.65;3.15;;;7.00;99.90;;;;;;4924548;29;20148;-80
2022/10/12 02:13:10;;;;;;;6.50;3.05;;;7.00;99.90;;;;;;4936687;29;20115;-80
2022/10/12 02:15:41;;;;;;;7.38;3.17;;;7.00;99.90;;;;;;4892852;29;20053;-80
2022/10/12 02:18:16;;;;;;;6.78;3.33;;;7.00;99.90;;;;;;4953990;28;20133;-79
2022/10/12 02:20:47;;;;;;;9.65;3.40;;;7.00;99.90;;;;;;4939441;29;20040;-80
2022/10/12 02:23:24;;;;;;;4.45;3.35;;;6.90;99.90;;;;;;4935048;29;20142;-80
2022/10/12 02:25:52;;;;;;;8.30;3.67;;;7.00;99.90;;;;;;4922179;29;20050;-80
2022/10/12 02:28:21;;;;;;;9.82;4.00;;;6.90;99.90;;;;;;4921114;28;20524;-80
2022/10/12 02:35:35;;;;;;;14.25;4.15;;;6.90;99.90;;;;;;4926532;28;20048;-80
2022/10/12 02:38:28;;;;;;;8.88;4.00;;;6.90;99.90;;;;;;4951956;28;20043;-80
2022/10/12 02:42:01;;;;;;;9.73;3.63;;;6.90;99.90;;;;;;4939920;29;20043;-80
2022/10/12 02:44:40;;;;;;;5.53;3.30;;;6.90;99.90;;;;;;4921041;29;20441;-80
2022/10/12 02:47:25;;;;;;;8.18;3.70;;;6.90;99.90;;;;;;4931792;28;20050;-81
2022/10/12 02:50:34;;;;;;;8.50;4.03;;;6.90;99.90;;;;;;4953584;28;20047;-80
2022/10/12 02:54:08;;;;;;;14.77;6.32;;;6.90;99.90;;;;;;4928323;29;20082;-80
2022/10/12 02:56:41;;;;;;;11.98;6.45;;;6.90;99.90;;;;;;4938529;29;20047;-79
2022/10/12 02:59:10;;;;;;;13.30;5.85;;;6.80;99.90;;;;;;4952230;28;20043;-80
2022/10/12 03:01:38;;;;;;;8.48;4.47;;;6.80;99.90;;;;;;4932938;29;20043;-80
2022/10/12 03:04:05;;;;;;;8.85;4.50;;;6.80;99.90;;;;;;4916760;29;20384;-80
2022/10/12 03:06:33;;;;;;;11.80;5.13;;;6.80;99.90;;;;;;4934121;29;20047;-80
2022/10/12 03:09:04;;;;;;;13.18;5.10;;;6.80;99.90;;;;;;4939687;29;20052;-80
2022/10/12 03:11:33;;;;;;;12.63;4.93;;;6.80;99.90;;;;;;4930611;29;20044;-80
2022/10/12 03:14:00;;;;;;;9.57;5.22;;;6.90;99.90;;;;;;4922526;29;20110;-80
2022/10/12 03:16:29;;;;;;;12.75;5.85;;;6.80;99.90;;;;;;4906934;29;20049;-80
2022/10/12 03:18:57;;;;;;;13.10;6.60;;;6.80;99.90;;;;;;4923027;29;20499;-80
2022/10/12 03:21:23;;;;;;;13.55;5.97;;;6.80;99.90;;;;;;4937968;29;20039;-80
2022/10/12 03:23:50;;;;;;;15.23;6.45;;;6.80;99.90;;;;;;4938256;29;20043;-80
2022/10/12 03:26:17;;;;;;;14.65;7.03;;;6.80;99.90;;;;;;4929021;29;20499;-79
2022/10/12 03:28:43;;;;;;;13.63;6.57;;;6.80;99.90;;;;;;4931055;29;20094;-80
2022/10/12 03:31:10;;;;;;;4.95;3.50;;;6.80;99.90;;;;;;4921348;29;20039;-80
2022/10/12 03:33:38;;;;;;;6.38;3.20;;;6.80;99.90;;;;;;4906758;29;20044;-80
2022/10/12 03:36:05;;;;;;;2.95;2.40;;;6.70;99.90;;;;;;4922554;29;20043;-80
2022/10/12 03:38:36;;;;;;;4.53;2.95;;;6.70;99.90;;;;;;4945933;29;20070;-80
2022/10/12 03:41:04;;;;;;;5.70;3.40;;;6.60;99.90;;;;;;4919875;29;20048;-80
2022/10/12 03:43:35;;;;;;;5.30;3.72;;;6.50;99.90;;;;;;4916031;29;20678;-80
2022/10/12 03:46:15;;;;;;;7.45;3.05;;;6.60;99.90;;;;;;4945104;28;20035;-80
2022/10/12 03:48:42;;;;;;;2.83;2.30;;;6.50;99.90;;;;;;4936093;29;20039;-80
2022/10/12 03:51:09;;;;;;;3.88;2.70;;;6.50;99.90;;;;;;4931835;29;20040;-80
2022/10/12 03:53:37;;;;;;;5.82;2.40;;;6.40;99.90;;;;;;4907287;29;20493;-79
2022/10/12 03:56:04;;;;;;;2.97;2.30;;;6.30;99.90;;;;;;4927441;29;20075;-80
2022/10/12 03:58:30;;;;;;;2.92;2.20;;;6.20;99.90;;;;;;4916100;29;20043;-80
2022/10/12 04:00:57;;;;;;;3.50;2.20;;;6.20;99.90;;;;;;4939377;29;20897;-80
2022/10/12 04:03:29;;;;;;;4.60;2.03;;;6.20;99.90;;;;;;4934233;29;20032;-80
2022/10/12 04:05:57;;;;;;;3.05;1.77;;;6.20;99.90;;;;;;4900616;29;20119;-79
2022/10/12 04:08:39;;;;;;;2.92;2.30;;;6.10;99.90;;;;;;4951329;28;20137;-79
2022/10/12 04:11:08;;;;;;;6.53;2.45;;;6.10;99.90;;;;;;4929757;29;20047;-79
2022/10/12 04:13:37;;;;;;;3.03;2.53;;;6.10;99.90;;;;;;4920527;29;20042;-79
2022/10/12 04:16:25;;;;;;;3.42;2.20;;;6.10;99.90;;;;;;4935643;29;20051;-79
2022/10/12 04:19:04;;;;;;;3.00;2.13;;;6.10;99.90;;;;;;4918502;29;20159;-79
2022/10/12 04:21:34;;;;;;;3.17;2.30;;;6.00;99.90;;;;;;4934294;29;20035;-79
2022/10/12 04:24:01;;;;;;;5.70;2.08;;;6.00;99.90;;;;;;4921745;29;20506;-80
2022/10/12 04:29:41;;;;;;;3.22;2.30;;;5.90;99.90;;;;;;4944693;28;20091;-80
2022/10/12 04:32:17;;;;;;;3.15;2.20;;;5.90;99.90;;;;;;4929354;29;20043;-80
2022/10/12 04:35:06;;;;;;;4.65;2.40;;;5.80;99.90;;;;;;4932371;29;20040;-80
2022/10/12 04:38:12;;;;;;;4.05;3.40;;;5.80;99.90;;;;;;4929637;29;20090;-80
2022/10/12 04:41:27;;;;;;;5.13;2.47;;;5.80;99.90;;;;;;4901944;28;20078;-80
2022/10/12 04:44:22;;;;;;;4.15;2.40;;;5.80;99.90;;;;;;4933946;28;20126;-80
2022/10/12 04:46:57;;;;;;;6.75;3.10;;;5.90;99.90;;;;;;4907642;29;20071;-80
2022/10/12 04:49:26;;;;;;;9.93;3.78;;;5.80;99.90;;;;;;4918471;28;20075;-80
2022/10/12 04:52:02;;;;;;;7.07;3.67;;;5.80;99.90;;;;;;4950642;28;20132;-80
2022/10/12 04:54:31;;;;;;;7.20;4.45;;;5.80;99.90;;;;;;4918002;29;20055;-80
2022/10/12 04:57:00;;;;;;;9.13;5.30;;;5.90;99.90;;;;;;4941978;28;20098;-80
2022/10/12 04:59:28;;;;;;;9.25;5.00;;;5.90;99.90;;;;;;4919916;29;20051;-79
2022/10/12 05:01:54;;;;;;;11.77;5.25;;;5.80;99.90;;;;;;4910181;29;20110;-80
2022/10/12 05:04:30;;;;;;;9.75;5.00;;;5.90;99.90;;;;;;4921357;29;20050;-80
2022/10/12 05:06:57;;;;;;;11.73;6.05;;;5.80;99.90;;;;;;4920007;29;20137;-80
2022/10/12 05:09:24;;;;;;;11.75;5.72;;;5.90;99.90;;;;;;4903089;29;20049;-80
2022/10/12 05:11:55;;;;;;;13.00;5.65;;;5.90;99.90;;;;;;4911701;29;20067;-79
2022/10/12 05:14:31;;;;;;;10.35;5.30;;;6.00;99.90;;;;;;4936037;28;20051;-80
2022/10/12 05:17:34;;;;;;;10.98;5.40;;;5.90;99.90;;;;;;4937629;29;20065;-80
2022/10/12 05:20:06;;;;;;;12.43;5.75;;;5.90;99.90;;;;;;4949961;29;20573;-80
2022/10/12 05:22:56;;;;;;;10.10;5.45;;;6.00;99.90;;;;;;4948852;28;20502;-80
2022/10/12 05:25:35;;;;;;;9.40;3.47;;;6.00;99.90;;;;;;4902455;29;20130;-79
2022/10/12 05:28:01;;;;;;;4.53;2.40;;;6.00;99.90;;;;;;4925288;29;20051;-79
2022/10/12 05:30:40;;;;;;;5.28;3.17;;;6.00;99.90;;;;;;4929447;29;20051;-80
2022/10/12 05:33:26;;;;;;;8.23;3.40;;;5.90;99.90;;;;;;4930606;28;20376;-79
2022/10/12 05:35:53;;;;;;;6.32;3.20;;;5.80;99.90;;;;;;4914538;29;20135;-80
2022/10/12 05:38:31;;;;;;;5.45;3.80;;;5.80;99.90;;;;;;4921478;28;20518;-80
2022/10/12 05:41:22;;;;;;;4.70;3.67;;;5.80;99.90;;;;;;4933208;29;20062;-80
2022/10/12 05:43:50;;;;;;;8.73;3.60;;;5.70;99.90;;;;;;4925694;29;20047;-80
2022/10/12 05:46:43;;;;;;;;;;;5.70;99.90;;;;;;4943461;28;20077;-80
2022/10/12 05:49:15;;;;;;;8.70;4.45;;;5.80;99.90;;;;;;4931935;29;19919;-80
2022/10/12 05:51:57;;;;;;;10.50;4.20;;;5.80;99.90;;;;;;4881565;29;20050;-80
2022/10/12 05:54:42;;;;;;;9.52;5.88;;;5.80;99.90;;;;;;4865538;29;20451;-80
2022/10/12 05:57:16;;;;;;;9.98;6.60;;;5.80;99.90;;;;;;4896408;29;20047;-80
2022/10/12 06:08:38;;;;;;;2.25;1.95;;;5.70;99.90;;;;;;4885560;29;20116;-80
2022/10/12 06:11:15;;;;;;;3.65;1.73;;;5.50;99.90;;;;;;4880568;29;20080;-80
2022/10/12 06:13:41;;;;;;;5.22;2.60;;;5.50;99.90;;;;;;4880531;29;20037;-80
2022/10/12 06:20:43;;;;;;;4.22;2.63;;;5.40;99.90;;;;;;4946059;28;20117;-80
2022/10/12 06:23:29;;;;;;;6.85;3.00;;;5.40;99.90;;;;;;4939351;28;20130;-80
2022/10/12 06:26:15;;;;;;;2.95;2.53;;;5.40;99.90;;;;;;4924643;28;20047;-80
2022/10/12 06:28:59;;;;;;;3.25;2.45;;;5.40;99.90;;;;;;4903353;28;20075;-80
2022/10/12 06:31:26;;;;;;;4.07;2.75;;;5.40;99.90;;;;;;4918212;29;20043;-80
2022/10/12 06:33:52;;;;;;;7.40;3.72;;;5.40;99.90;;;;;;4931730;28;20043;-80
2022/10/12 06:36:19;;;;;;;7.53;4.80;;;5.40;99.90;;;;;;4936187;28;20468;-80
2022/10/12 06:38:45;;;;;;;8.38;4.63;;;5.40;99.90;;;;;;4919088;29;20369;-80
2022/10/12 06:41:42;;;;;;;10.07;5.22;;;5.40;99.90;;;;;;4914671;29;20082;-80
2022/10/12 06:44:46;;;;;;;8.93;4.97;;;5.40;99.90;;;;;;4927265;28;20046;-80
2022/10/12 06:47:29;;;;;;;5.72;3.10;;;5.50;99.90;;;;;;4926326;28;20070;-79
2022/10/12 06:49:55;;;;;;;6.07;3.58;;;5.50;99.90;;;;;;4930531;28;20039;-78
2022/10/12 06:52:21;;;;;;;9.35;4.18;;;5.50;99.90;;;;;;4934346;29;20058;-80
2022/10/12 06:54:47;;;;;;;11.98;4.65;;;5.50;99.90;;;;;;4918770;29;20455;-80
2022/10/12 06:57:16;;;;;;;6.63;4.43;;;5.60;99.90;;;;;;4918700;29;20047;-80
2022/10/12 06:59:42;;;;;;;9.80;4.90;;;5.60;99.90;;;;;;4917753;29;20035;-80
2022/10/12 07:02:10;;;;;;;8.93;5.18;;;5.50;99.90;;;;;;4920879;29;20039;-79
2022/10/12 07:04:36;;;;;;;10.68;5.20;;;5.60;99.90;;;;;;4928124;28;20047;-80
2022/10/12 07:07:03;;;;;;;11.80;5.35;;;5.60;99.90;;;;;;4914795;29;20087;-78
2022/10/12 07:09:32;;;;;;;13.52;6.30;;;5.70;99.90;;;;;;4925226;29;20137;-79
2022/10/12 07:12:01;;;;;;;67.95;10.55;;;5.80;99.90;;;;;;4892715;29;20129;-77
2022/10/12 07:14:27;;;;;;;15.25;7.22;;;5.80;99.90;;;;;;4923618;29;20171;-79
2022/10/12 07:16:53;;;;;;;22.95;7.05;;;6.00;99.90;;;;;;4914702;29;20486;-79
2022/10/12 07:19:19;;;;;;;12.23;6.18;;;5.90;99.90;;;;;;4919711;29;20089;-80
2022/10/12 07:21:58;;;;;;;12.23;5.88;;;6.00;99.90;;;;;;4953495;29;20541;-78
2022/10/12 07:24:36;;;;;;;13.23;6.30;;;6.10;99.90;;;;;;4920426;29;20040;-78
2022/10/12 07:27:04;;;;;;;10.85;6.20;;;6.20;99.90;;;;;;4931546;29;20182;-78
2022/10/12 07:29:31;;;;;;;11.15;6.05;;;6.20;99.90;;;;;;4920006;29;20402;-78
2022/10/12 07:32:00;;;;;;;13.25;6.85;;;6.30;99.90;;;;;;4934157;29;20067;-79
2022/10/12 07:34:29;;;;;;;14.25;7.63;;;6.40;99.90;;;;;;4903255;29;20413;-78
2022/10/12 07:36:56;;;;;;;16.52;7.82;;;6.50;99.90;;;;;;4932340;29;20046;-78
2022/10/12 07:39:23;;;;;;;14.63;7.72;;;6.60;99.90;;;;;;4914472;28;20066;-78
2022/10/12 07:41:51;;;;;;;21.52;7.75;;;6.70;99.90;;;;;;4921073;29;20035;-78
2022/10/12 07:44:18;;;;;;;12.82;7.75;;;6.80;99.90;;;;;;4923984;29;20059;-78
2022/10/12 07:46:44;;;;;;;19.17;8.93;;;6.90;99.90;;;;;;4918188;29;20052;-79
2022/10/12 07:49:14;;;;;;;15.85;8.98;;;7.10;99.90;;;;;;4922595;29;20059;-79
2022/10/12 07:51:41;;;;;;;13.82;8.85;;;7.20;99.90;;;;;;4932272;28;20054;-78
2022/10/12 07:54:08;;;;;;;18.67;8.75;;;7.40;99.90;;;;;;4932328;29;20071;-78
2022/10/12 07:56:34;;;;;;;16.60;9.52;;;7.50;99.90;;;;;;4928888;29;20042;-78
2022/10/12 07:59:01;;;;;;;15.07;8.57;;;7.60;99.90;;;;;;4928162;29;20417;-78
2022/10/12 08:01:31;;;;;;;17.08;8.75;;;7.70;99.90;;;;;;4906931;29;20035;-79
2022/10/12 08:03:59;;;;;;;12.85;8.15;;;8.00;99.90;;;;;;4934936;29;20039;-78
2022/10/12 08:06:33;;;;;;;18.83;8.98;;;8.00;99.90;;;;;;4945851;29;20077;-78
2022/10/12 08:09:01;;;;;;;19.10;8.68;;;8.10;99.90;;;;;;4931826;29;20505;-78
2022/10/12 08:11:29;;;;;;;15.20;8.73;;;8.30;99.90;;;;;;4915952;29;20139;-78
2022/10/12 08:13:55;;;;;;;18.10;8.98;;;8.20;99.90;;;;;;4917332;29;20043;-78
2022/10/12 08:16:24;;;;;;;16.08;9.55;;;8.50;99.90;;;;;;4931475;29;20051;-78
2022/10/12 08:18:51;;;;;;;18.48;9.57;;;8.50;99.90;;;;;;4917844;29;20049;-78
2022/10/12 08:21:21;;;;;;;16.80;8.40;;;8.70;99.90;;;;;;4919508;29;20127;-79
2022/10/12 08:23:47;;;;;;;20.08;8.57;;;8.80;99.90;;;;;;4908560;29;20043;-79
2022/10/12 08:26:16;;;;;;;18.60;7.25;;;8.80;99.90;;;;;;4910697;29;20083;-78
2022/10/12 08:28:42;;;;;;;22.30;7.07;;;8.90;99.90;;;;;;4925271;29;20078;-77
2022/10/12 08:31:11;;;;;;;14.60;6.18;;;8.90;99.90;;;;;;4916654;29;20043;-78
2022/10/12 08:33:38;;;;;;;15.40;6.93;;;9.00;99.90;;;;;;4927937;28;20043;-78
2022/10/12 08:36:05;;;;;;;14.25;6.22;;;9.10;99.90;;;;;;4913988;29;20039;-78
2022/10/12 08:38:32;;;;;;;12.55;6.43;;;9.10;99.90;;;;;;4924672;29;20051;-77
2022/10/12 08:41:25;;;;;;;16.25;6.70;;;9.20;99.90;;;;;;4881562;29;20057;-78
2022/10/12 08:44:04;;;;;;;17.38;6.65;;;9.20;99.90;;;;;;4919499;29;20505;-77
2022/10/12 08:46:30;;;;;;;15.38;7.13;;;9.30;99.90;;;;;;4915378;28;20078;-78
2022/10/12 08:49:15;;;;;;;17.42;6.90;;;9.30;99.90;;;;;;4928541;29;20078;-77
2022/10/12 08:51:51;;;;;;;18.48;6.47;;;9.40;99.90;;;;;;4925128;29;20050;-78
2022/10/12 08:54:27;;;;;;;21.10;7.25;;;9.40;99.90;;;;;;4925491;29;20043;-77
2022/10/12 08:56:54;;;;;;;21.05;7.35;;;9.50;99.90;;;;;;4931782;29;20047;-78
2022/10/12 08:59:19;;;;;;;19.13;6.72;;;9.60;99.90;;;;;;4933832;29;20043;-77
2022/10/12 09:02:17;;;;;;;13.80;6.38;;;9.60;99.90;;;;;;4912995;29;20529;-77
2022/10/12 09:05:02;;;;;;;21.33;6.80;;;9.50;99.90;;;;;;4933088;29;20039;-77
2022/10/12 09:07:37;;;;;;;17.55;6.72;;;9.60;99.90;;;;;;4948265;29;20525;-77
2022/10/12 09:10:29;;;;;;;17.35;7.05;;;9.60;99.90;;;;;;4935002;29;20051;-77
2022/10/12 09:13:24;;;;;;;19.65;6.72;;;9.60;99.90;;;;;;4921230;29;20102;-82
2022/10/12 09:16:03;;;;;;;14.15;6.80;;;9.60;99.90;;;;;;4928991;29;20043;-77
2022/10/12 09:18:45;;;;;;;15.40;5.88;;;9.60;99.90;;;;;;4930385;29;20079;-78
2022/10/12 09:21:16;;;;;;;14.73;5.78;;;9.70;99.90;;;;;;4931873;29;20047;-78
2022/10/12 09:23:45;;;;;;;25.88;6.45;;;9.80;99.90;;;;;;4942896;29;20055;-77
2022/10/12 09:26:31;;;;;;;20.33;6.20;;;9.90;99.90;;;;;;4932494;29;20058;-78
2022/10/12 09:28:57;;;;;;;15.73;4.75;;;10.00;99.90;;;;;;4921007;29;20075;-77
2022/10/12 09:32:00;;;;;;;19.98;5.43;;;10.10;99.90;;;;;;4930433;28;20047;-78
2022/10/12 09:34:26;;;;;;;16.50;5.93;;;10.10;99.90;;;;;;4921271;29;20102;-78
2022/10/12 09:36:54;;;;;;;12.32;5.05;;;10.30;99.90;;;;;;4930916;29;20520;-78
2022/10/12 09:39:27;;;;;;;14.32;5.15;;;10.40;99.90;;;;;;4912507;29;20520;-78
2022/10/12 09:41:53;;;;;;;16.40;5.40;;;10.50;99.90;;;;;;4923303;29;20031;-79
2022/10/12 09:44:40;;;;;;;14.52;4.90;;;10.60;99.90;;;;;;4924954;29;20190;-78
2022/10/12 09:47:27;;;;;;;20.92;5.47;;;10.80;99.90;;;;;;4938485;29;20043;-78
2022/10/12 09:49:58;;;;;;;15.90;4.07;;;10.90;99.90;;;;;;4932237;29;20047;-79
2022/10/12 09:52:35;;;;;;;17.58;4.97;;;11.00;99.90;;;;;;4930525;28;20043;-78
2022/10/12 09:55:25;;;;;;;15.77;4.70;;;11.10;99.90;;;;;;4922403;29;20055;-78
2022/10/12 09:57:55;;;;;;;13.07;5.03;;;11.20;99.90;;;;;;4931078;29;20049;-79
2022/10/12 10:00:33;;;;;;;17.83;5.40;;;11.30;99.90;;;;;;4917971;29;20047;-79
2022/10/12 10:03:00;;;;;;;12.90;4.05;;;11.30;99.90;;;;;;4932469;28;20043;-79
2022/10/12 10:05:33;;;;;;;16.55;4.82;;;11.40;99.90;;;;;;4938713;28;20039;-77
2022/10/12 10:08:19;;;;;;;12.80;4.30;;;11.40;99.90;;;;;;4921197;28;20094;-79
2022/10/12 10:10:54;;;;;;;18.25;4.85;;;11.60;99.90;;;;;;4938803;28;20035;-79
2022/10/12 10:13:21;;;;;;;13.60;4.95;;;11.60;99.90;;;;;;4936697;29;20498;-79
2022/10/12 10:16:01;;;;;;;19.52;4.40;;;11.70;99.90;;;;;;4932325;29;20073;-79
2022/10/12 10:18:32;;;;;;;15.55;4.57;;;11.80;99.90;;;;;;4915765;28;20056;-79
2022/10/12 10:20:59;;;;;;;12.50;4.68;;;11.90;99.90;;;;;;4951824;28;20039;-79
2022/10/12 10:23:31;;;;;;;19.25;5.13;;;12.00;99.90;;;;;;4920865;28;20090;-79
2022/10/12 10:26:07;;;;;;;17.65;4.97;;;12.10;99.90;;;;;;4936185;29;20051;-79
2022/10/12 10:28:37;;;;;;;10.40;4.40;;;12.20;99.90;;;;;;4933656;29;20457;-78
2022/10/12 10:31:24;;;;;;;27.02;5.25;;;12.40;99.90;;;;;;4939564;29;20409;-77
2022/10/12 10:34:11;;;;;;;15.10;4.60;;;12.50;99.90;;;;;;4953978;28;20122;-79
2022/10/12 10:36:55;;;;;;;15.65;5.03;;;12.70;99.90;;;;;;4939583;28;20050;-79
2022/10/12 10:39:50;;;;;;;13.20;4.63;;;12.90;99.90;;;;;;4951797;28;20046;-79
2022/10/12 10:42:34;;;;;;;14.95;4.53;;;13.00;99.90;;;;;;4945096;28;20034;-78
2022/10/12 10:45:29;;;;;;;11.43;4.53;;;13.10;99.90;;;;;;4941573;29;20665;-79
2022/10/12 10:48:20;;;;;;;14.30;4.28;;;13.30;99.90;;;;;;4948565;28;20402;-78
2022/10/12 10:50:55;;;;;;;;;;;13.50;99.90;;;;;;4935607;28;20485;-78
2022/10/12 10:53:26;;;;;;;10.30;4.10;;;13.60;99.90;;;;;;4925152;29;19918;-79
2022/10/12 10:56:02;;;;;;;14.55;4.60;;;13.90;99.90;;;;;;4933059;29;20052;-79
2022/10/12 10:58:45;;;;;;;12.82;3.90;;;14.00;99.90;;;;;;4920017;29;20074;-79
2022/10/12 11:01:20;;;;;;;14.45;4.13;;;14.10;99.90;;;;;;4934939;29;20044;-79
2022/10/12 11:04:09;;;;;;;14.05;4.40;;;14.30;99.90;;;;;;4926496;28;20126;-78
2022/10/12 11:06:39;;;;;;;12.90;3.78;;;14.60;99.90;;;;;;4923303;28;20082;-79
2022/10/12 11:09:29;;;;;;;14.23;3.70;;;14.80;99.90;;;;;;4937929;29;20094;-79
2022/10/12 11:12:07;;;;;;;13.80;4.00;;;15.10;99.90;;;;;;4925958;29;20406;-79
2022/10/12 11:14:47;;;;;;;17.83;4.07;;;15.30;99.90;;;;;;4922701;28;20047;-78
2022/10/12 11:17:21;;;;;;;11.07;4.00;;;15.60;99.90;;;;;;4949525;28;20051;-78
2022/10/12 11:19:50;;;;;;;16.75;3.78;;;15.80;99.90;;;;;;4935499;29;20043;-79
2022/10/12 11:22:22;;;;;;;13.00;3.75;;;16.00;99.90;;;;;;4919455;29;20462;-79
2022/10/12 11:25:18;;;;;;;12.32;3.70;;;16.20;99.90;;;;;;4933247;29;20102;-79
2022/10/12 11:27:44;;;;;;;12.95;3.88;;;16.50;99.90;;;;;;4938178;28;20490;-78
2022/10/12 11:30:15;;;;;;;11.13;3.55;;;16.70;99.90;;;;;;4924562;29;20047;-79
2022/10/12 11:32:58;;;;;;;12.60;4.03;;;16.70;99.90;;;;;;4933714;28;20054;-78
2022/10/12 11:35:32;;;;;;;12.13;4.00;;;16.80;99.90;;;;;;4939371;29;20405;-79
2022/10/12 11:38:02;;;;;;;11.00;3.47;;;17.00;99.90;;;;;;4923394;28;20264;-79
2022/10/12 11:40:32;;;;;;;11.18;3.72;;;17.10;99.90;;;;;;4932902;29;20106;-79
2022/10/12 11:43:03;;;;;;;13.68;3.42;;;17.30;99.80;;;;;;4939579;28;20039;-78
2022/10/12 11:45:34;;;;;;;8.67;3.30;;;17.40;99.90;;;;;;4926632;29;20163;-79
2022/10/12 11:48:08;;;;;;;11.63;3.65;;;17.50;99.60;;;;;;4932473;29;20051;-78
2022/10/12 11:50:40;;;;;;;8.07;3.05;;;17.60;98.70;;;;;;4930042;29;20137;-79
2022/10/12 11:53:17;;;;;;;8.68;2.92;;;17.70;98.00;;;;;;4934231;29;20054;-77
2022/10/12 11:55:51;;;;;;;10.95;3.20;;;17.90;97.80;;;;;;4930166;28;20072;-78
2022/10/12 11:58:31;;;;;;;9.07;3.05;;;18.00;96.30;;;;;;4925085;29;20194;-79
2022/10/12 12:01:25;;;;;;;8.45;2.97;;;18.00;97.80;;;;;;4937249;29;20040;-79
2022/10/12 12:04:19;;;;;;;9.73;3.03;;;18.10;94.20;;;;;;4918605;29;20368;-79
2022/10/12 12:07:05;;;;;;;12.75;3.70;;;18.30;94.50;;;;;;4916280;28;20130;-79
2022/10/12 12:09:35;;;;;;;9.55;3.60;;;18.40;95.10;;;;;;4936760;29;20086;-80
2022/10/12 12:12:22;;;;;;;8.25;3.35;;;18.60;95.90;;;;;;4951165;28;20450;-79
2022/10/12 12:15:00;;;;;;;12.48;3.10;;;18.60;93.80;;;;;;4935281;28;20043;-79
2022/10/12 12:17:29;;;;;;;10.38;3.33;;;18.70;93.10;;;;;;4930118;29;20050;-79
2022/10/12 12:20:00;;;;;;;9.27;3.60;;;18.60;92.90;;;;;;4936276;29;20126;-79
2022/10/12 12:22:36;;;;;;;10.75;3.83;;;18.90;95.40;;;;;;4934356;28;20553;-79
2022/10/12 12:25:18;;;;;;;12.43;4.25;;;19.10;94.10;;;;;;4919320;29;20043;-78
2022/10/12 12:27:56;;;;;;;8.70;3.38;;;19.40;92.10;;;;;;4921840;29;20079;-78
2022/10/12 12:30:26;;;;;;;11.52;3.85;;;19.50;92.40;;;;;;4935891;29;20078;-79
2022/10/12 12:33:26;;;;;;;7.88;3.33;;;19.50;91.60;;;;;;4928156;28;20043;-78
2022/10/12 12:36:15;;;;;;;10.15;3.40;;;19.80;90.50;;;;;;4883669;29;20490;-78
2022/10/12 12:38:48;;;;;;;11.00;4.00;;;19.70;91.90;;;;;;4919279;29;20043;-78
2022/10/12 12:41:23;;;;;;;10.95;3.75;;;19.90;91.10;;;;;;4919745;29;20050;-78
2022/10/12 12:43:55;;;;;;;11.85;3.72;;;20.10;91.10;;;;;;4936102;29;20468;-78
2022/10/12 12:46:23;;;;;;;11.18;4.18;;;20.30;91.00;;;;;;4934653;29;20074;-78
2022/10/12 12:48:49;;;;;;;11.68;3.53;;;20.10;87.70;;;;;;4924334;28;20137;-78
2022/10/12 12:51:19;;;;;;;11.68;3.83;;;20.30;85.90;;;;;;4936027;29;20083;-79
2022/10/12 12:54:11;;;;;;;10.15;3.50;;;20.50;89.90;;;;;;4936524;28;20046;-78
2022/10/12 12:56:46;;;;;;;12.45;3.63;;;20.40;80.70;;;;;;4921991;29;20058;-78
2022/10/12 12:59:37;;;;;;;10.02;4.65;;;20.40;85.30;;;;;;4934644;29;20039;-78
2022/10/12 13:02:48;;;;;;;12.68;3.75;;;20.60;82.60;;;;;;4939952;28;20035;-79
2022/10/12 13:05:39;;;;;;;12.50;4.43;;;20.60;85.30;;;;;;4940558;29;20039;-79
2022/10/12 13:08:32;;;;;;;11.57;4.43;;;20.80;86.00;;;;;;4935858;29;20047;-79
2022/10/12 13:11:12;;;;;;;12.48;4.32;;;21.10;84.20;;;;;;4938042;28;20054;-79
2022/10/12 13:13:59;;;;;;;8.52;3.95;;;21.20;80.10;;;;;;4931773;29;20051;-79
2022/10/12 13:16:59;;;;;;;10.73;4.05;;;21.00;81.10;;;;;;4936216;29;20043;-79
2022/10/12 13:19:26;;;;;;;9.43;4.35;;;20.80;76.60;;;;;;4942328;28;20050;-78
2022/10/12 13:21:54;;;;;;;12.07;4.15;;;20.80;82.90;;;;;;4938250;28;20066;-77
2022/10/12 13:24:37;;;;;;;12.07;4.53;;;20.70;78.50;;;;;;4938949;29;20553;-78
2022/10/12 13:27:23;;;;;;;10.57;4.00;;;20.90;78.00;;;;;;4918563;29;20098;-78
2022/10/12 13:29:57;;;;;;;11.15;4.45;;;20.80;76.30;;;;;;4929788;29;20035;-78
2022/10/12 13:32:50;;;;;;;14.63;4.63;;;21.00;80.10;;;;;;4926637;29;20050;-78
2022/10/12 13:35:29;;;;;;;16.90;4.40;;;21.20;81.70;;;;;;4913302;29;20517;-78
2022/10/12 13:38:22;;;;;;;13.20;4.45;;;21.50;79.50;;;;;;4939773;29;20055;-79
2022/10/12 13:41:06;;;;;;;14.18;4.30;;;21.30;77.80;;;;;;4924658;29;20132;-79
2022/10/12 13:43:35;;;;;;;9.63;4.22;;;21.40;78.60;;;;;;4925370;29;20047;-78
2022/10/12 13:46:01;;;;;;;12.07;4.55;;;21.50;77.70;;;;;;4944766;29;20044;-78
2022/10/12 13:48:28;;;;;;;10.40;4.53;;;21.70;77.70;;;;;;4922371;29;20043;-79
2022/10/12 13:50:55;;;;;;;14.82;4.50;;;21.70;77.90;;;;;;4927629;28;20113;-79
2022/10/12 13:53:21;;;;;;;10.90;4.20;;;21.80;78.40;;;;;;4933043;29;20050;-79
2022/10/12 13:56:15;;;;;;;10.70;4.57;;;22.00;77.40;;;;;;4922199;28;20075;-78